sensor_id;sensor_type;location;lat;lon;timestamp;P1;durP1;ratioP1;P2;durP2;ratioP2
64487;SDS011;50864;45.050;39.014;2023-08-21T00:00:02;16.12;;;9.38;;
64487;SDS011;50864;45.050;39.014;2023-08-21T00:02:29;18.48;;;9.30;;
64487;SDS011;50864;45.050;39.014;2023-08-21T00:04:55;16.15;;;6.68;;
64487;SDS011;50864;45.050;39.014;2023-08-21T00:07:22;25.08;;;9.05;;
64487;SDS011;50864;45.050;39.014;2023-08-21T00:09:48;14.35;;;8.65;;
64487;SDS011;50864;45.050;39.014;2023-08-21T00:12:14;12.68;;;5.72;;
64487;SDS011;50864;45.050;39.014;2023-08-21T00:14:39;20.62;;;6.25;;
64487;SDS011;50864;45.050;39.014;2023-08-21T00:17:05;13.48;;;6.28;;
64487;SDS011;50864;45.050;39.014;2023-08-21T00:19:32;17.42;;;5.82;;
64487;SDS011;50864;45.050;39.014;2023-08-21T00:21:57;13.13;;;6.00;;
64487;SDS011;50864;45.050;39.014;2023-08-21T00:24:23;13.93;;;6.15;;
64487;SDS011;50864;45.050;39.014;2023-08-21T00:26:49;20.05;;;10.90;;
64487;SDS011;50864;45.050;39.014;2023-08-21T00:29:15;18.08;;;9.95;;
64487;SDS011;50864;45.050;39.014;2023-08-21T00:31:40;13.35;;;6.05;;
64487;SDS011;50864;45.050;39.014;2023-08-21T00:34:06;24.30;;;11.07;;
64487;SDS011;50864;45.050;39.014;2023-08-21T00:36:32;17.83;;;10.13;;
64487;SDS011;50864;45.050;39.014;2023-08-21T00:38:58;12.90;;;6.28;;
64487;SDS011;50864;45.050;39.014;2023-08-21T00:41:24;24.85;;;13.02;;
64487;SDS011;50864;45.050;39.014;2023-08-21T00:43:49;18.83;;;9.30;;
64487;SDS011;50864;45.050;39.014;2023-08-21T00:46:15;24.15;;;14.02;;
64487;SDS011;50864;45.050;39.014;2023-08-21T00:48:42;13.68;;;7.60;;
64487;SDS011;50864;45.050;39.014;2023-08-21T00:51:08;24.70;;;14.45;;
64487;SDS011;50864;45.050;39.014;2023-08-21T00:53:34;29.35;;;16.02;;
64487;SDS011;50864;45.050;39.014;2023-08-21T00:56:00;29.17;;;14.52;;
64487;SDS011;50864;45.050;39.014;2023-08-21T00:58:25;27.85;;;15.55;;
64487;SDS011;50864;45.050;39.014;2023-08-21T01:00:51;16.85;;;9.98;;
64487;SDS011;50864;45.050;39.014;2023-08-21T01:03:18;22.08;;;13.73;;
64487;SDS011;50864;45.050;39.014;2023-08-21T01:05:44;22.37;;;12.52;;
64487;SDS011;50864;45.050;39.014;2023-08-21T01:08:12;22.02;;;13.45;;
64487;SDS011;50864;45.050;39.014;2023-08-21T01:11:04;31.20;;;16.23;;
64487;SDS011;50864;45.050;39.014;2023-08-21T01:13:44;32.35;;;17.08;;
64487;SDS011;50864;45.050;39.014;2023-08-21T01:16:13;22.83;;;14.55;;
64487;SDS011;50864;45.050;39.014;2023-08-21T01:18:40;27.42;;;15.60;;
64487;SDS011;50864;45.050;39.014;2023-08-21T01:21:07;15.55;;;8.75;;
64487;SDS011;50864;45.050;39.014;2023-08-21T01:23:37;26.08;;;13.00;;
64487;SDS011;50864;45.050;39.014;2023-08-21T01:26:03;21.17;;;11.60;;
64487;SDS011;50864;45.050;39.014;2023-08-21T01:28:30;15.23;;;8.90;;
64487;SDS011;50864;45.050;39.014;2023-08-21T01:30:59;15.13;;;7.78;;
64487;SDS011;50864;45.050;39.014;2023-08-21T01:33:27;20.83;;;13.02;;
64487;SDS011;50864;45.050;39.014;2023-08-21T01:35:56;18.17;;;12.20;;
64487;SDS011;50864;45.050;39.014;2023-08-21T01:38:23;23.45;;;14.07;;
64487;SDS011;50864;45.050;39.014;2023-08-21T01:40:49;19.77;;;11.85;;
64487;SDS011;50864;45.050;39.014;2023-08-21T01:43:15;13.35;;;8.10;;
64487;SDS011;50864;45.050;39.014;2023-08-21T01:45:41;14.60;;;8.18;;
64487;SDS011;50864;45.050;39.014;2023-08-21T01:48:07;31.05;;;15.65;;
64487;SDS011;50864;45.050;39.014;2023-08-21T01:50:32;16.52;;;9.02;;
64487;SDS011;50864;45.050;39.014;2023-08-21T01:52:58;34.03;;;15.13;;
64487;SDS011;50864;45.050;39.014;2023-08-21T01:55:26;22.48;;;13.10;;
64487;SDS011;50864;45.050;39.014;2023-08-21T01:57:52;17.37;;;10.05;;
64487;SDS011;50864;45.050;39.014;2023-08-21T02:00:18;22.98;;;12.52;;
64487;SDS011;50864;45.050;39.014;2023-08-21T02:02:45;38.15;;;20.98;;
64487;SDS011;50864;45.050;39.014;2023-08-21T02:05:11;42.22;;;21.65;;
64487;SDS011;50864;45.050;39.014;2023-08-21T02:07:38;20.85;;;13.18;;
64487;SDS011;50864;45.050;39.014;2023-08-21T02:10:04;21.65;;;15.55;;
64487;SDS011;50864;45.050;39.014;2023-08-21T02:12:32;33.97;;;18.52;;
64487;SDS011;50864;45.050;39.014;2023-08-21T02:14:57;33.10;;;18.02;;
64487;SDS011;50864;45.050;39.014;2023-08-21T02:17:26;21.15;;;13.35;;
64487;SDS011;50864;45.050;39.014;2023-08-21T02:19:52;28.48;;;16.37;;
64487;SDS011;50864;45.050;39.014;2023-08-21T02:22:18;20.75;;;10.50;;
64487;SDS011;50864;45.050;39.014;2023-08-21T02:24:43;13.77;;;10.27;;
64487;SDS011;50864;45.050;39.014;2023-08-21T02:27:09;16.58;;;10.45;;
64487;SDS011;50864;45.050;39.014;2023-08-21T02:29:35;16.37;;;10.23;;
64487;SDS011;50864;45.050;39.014;2023-08-21T02:32:02;18.85;;;10.95;;
64487;SDS011;50864;45.050;39.014;2023-08-21T02:34:28;32.10;;;18.10;;
64487;SDS011;50864;45.050;39.014;2023-08-21T02:36:53;29.35;;;15.75;;
64487;SDS011;50864;45.050;39.014;2023-08-21T02:39:19;25.02;;;13.95;;
64487;SDS011;50864;45.050;39.014;2023-08-21T02:41:45;25.23;;;16.33;;
64487;SDS011;50864;45.050;39.014;2023-08-21T02:44:11;20.60;;;13.45;;
64487;SDS011;50864;45.050;39.014;2023-08-21T02:46:37;40.72;;;20.45;;
64487;SDS011;50864;45.050;39.014;2023-08-21T02:49:03;22.23;;;14.52;;
64487;SDS011;50864;45.050;39.014;2023-08-21T02:51:28;53.42;;;29.20;;
64487;SDS011;50864;45.050;39.014;2023-08-21T02:53:54;60.42;;;30.50;;
64487;SDS011;50864;45.050;39.014;2023-08-21T02:56:20;33.30;;;21.83;;
64487;SDS011;50864;45.050;39.014;2023-08-21T02:58:46;53.87;;;27.42;;
64487;SDS011;50864;45.050;39.014;2023-08-21T03:01:11;31.75;;;18.95;;
64487;SDS011;50864;45.050;39.014;2023-08-21T03:03:38;32.60;;;23.45;;
64487;SDS011;50864;45.050;39.014;2023-08-21T03:06:03;41.92;;;24.23;;
64487;SDS011;50864;45.050;39.014;2023-08-21T03:08:30;44.63;;;25.37;;
64487;SDS011;50864;45.050;39.014;2023-08-21T03:10:56;29.90;;;17.85;;
64487;SDS011;50864;45.050;39.014;2023-08-21T03:13:22;30.23;;;18.35;;
64487;SDS011;50864;45.050;39.014;2023-08-21T03:15:48;27.98;;;14.38;;
64487;SDS011;50864;45.050;39.014;2023-08-21T03:18:14;27.75;;;14.43;;
64487;SDS011;50864;45.050;39.014;2023-08-21T03:20:45;32.85;;;18.08;;
64487;SDS011;50864;45.050;39.014;2023-08-21T03:23:12;36.05;;;20.85;;
64487;SDS011;50864;45.050;39.014;2023-08-21T03:25:38;24.23;;;14.77;;
64487;SDS011;50864;45.050;39.014;2023-08-21T03:28:04;32.13;;;19.33;;
64487;SDS011;50864;45.050;39.014;2023-08-21T03:30:29;24.30;;;14.23;;
64487;SDS011;50864;45.050;39.014;2023-08-21T03:32:55;33.15;;;20.20;;
64487;SDS011;50864;45.050;39.014;2023-08-21T03:35:21;24.58;;;13.23;;
64487;SDS011;50864;45.050;39.014;2023-08-21T03:37:47;30.85;;;16.50;;
64487;SDS011;50864;45.050;39.014;2023-08-21T03:40:13;27.52;;;16.55;;
64487;SDS011;50864;45.050;39.014;2023-08-21T03:42:40;23.05;;;12.07;;
64487;SDS011;50864;45.050;39.014;2023-08-21T03:45:06;20.10;;;11.38;;
64487;SDS011;50864;45.050;39.014;2023-08-21T03:47:32;23.12;;;11.35;;
64487;SDS011;50864;45.050;39.014;2023-08-21T03:49:58;30.40;;;15.15;;
64487;SDS011;50864;45.050;39.014;2023-08-21T03:52:24;32.30;;;14.15;;
64487;SDS011;50864;45.050;39.014;2023-08-21T03:54:50;26.90;;;12.45;;
64487;SDS011;50864;45.050;39.014;2023-08-21T03:57:16;24.17;;;12.48;;
64487;SDS011;50864;45.050;39.014;2023-08-21T03:59:41;24.33;;;12.90;;
64487;SDS011;50864;45.050;39.014;2023-08-21T04:02:07;22.20;;;9.45;;
64487;SDS011;50864;45.050;39.014;2023-08-21T04:04:34;23.75;;;11.75;;
64487;SDS011;50864;45.050;39.014;2023-08-21T04:07:00;25.80;;;12.30;;
64487;SDS011;50864;45.050;39.014;2023-08-21T04:09:26;16.20;;;8.70;;
64487;SDS011;50864;45.050;39.014;2023-08-21T04:11:52;22.08;;;11.45;;
64487;SDS011;50864;45.050;39.014;2023-08-21T04:14:17;18.45;;;9.38;;
64487;SDS011;50864;45.050;39.014;2023-08-21T04:16:43;19.55;;;10.40;;
64487;SDS011;50864;45.050;39.014;2023-08-21T04:19:09;23.17;;;8.93;;
64487;SDS011;50864;45.050;39.014;2023-08-21T04:21:35;22.87;;;10.82;;
64487;SDS011;50864;45.050;39.014;2023-08-21T04:24:01;17.98;;;9.52;;
64487;SDS011;50864;45.050;39.014;2023-08-21T04:26:27;19.65;;;8.45;;
64487;SDS011;50864;45.050;39.014;2023-08-21T04:28:52;22.05;;;8.63;;
64487;SDS011;50864;45.050;39.014;2023-08-21T04:31:18;19.80;;;9.13;;
64487;SDS011;50864;45.050;39.014;2023-08-21T04:33:46;20.00;;;9.43;;
64487;SDS011;50864;45.050;39.014;2023-08-21T04:36:15;20.17;;;8.52;;
64487;SDS011;50864;45.050;39.014;2023-08-21T04:38:41;15.70;;;7.43;;
64487;SDS011;50864;45.050;39.014;2023-08-21T04:41:08;21.00;;;8.88;;
64487;SDS011;50864;45.050;39.014;2023-08-21T04:43:34;17.58;;;7.78;;
64487;SDS011;50864;45.050;39.014;2023-08-21T04:46:01;17.77;;;7.30;;
64487;SDS011;50864;45.050;39.014;2023-08-21T04:48:28;16.10;;;6.25;;
64487;SDS011;50864;45.050;39.014;2023-08-21T04:50:54;14.27;;;7.65;;
64487;SDS011;50864;45.050;39.014;2023-08-21T04:53:20;16.40;;;7.40;;
64487;SDS011;50864;45.050;39.014;2023-08-21T04:55:46;18.55;;;8.35;;
64487;SDS011;50864;45.050;39.014;2023-08-21T04:58:12;14.13;;;7.20;;
64487;SDS011;50864;45.050;39.014;2023-08-21T05:00:37;15.93;;;7.22;;
64487;SDS011;50864;45.050;39.014;2023-08-21T05:03:05;18.60;;;7.80;;
64487;SDS011;50864;45.050;39.014;2023-08-21T05:05:31;19.00;;;7.20;;
64487;SDS011;50864;45.050;39.014;2023-08-21T05:07:58;18.70;;;7.53;;
64487;SDS011;50864;45.050;39.014;2023-08-21T05:10:24;23.12;;;7.37;;
64487;SDS011;50864;45.050;39.014;2023-08-21T05:12:49;16.23;;;7.68;;
64487;SDS011;50864;45.050;39.014;2023-08-21T05:15:16;19.02;;;6.65;;
64487;SDS011;50864;45.050;39.014;2023-08-21T05:17:42;16.67;;;6.50;;
64487;SDS011;50864;45.050;39.014;2023-08-21T05:20:08;18.80;;;6.57;;
64487;SDS011;50864;45.050;39.014;2023-08-21T05:22:35;14.93;;;6.20;;
64487;SDS011;50864;45.050;39.014;2023-08-21T05:25:01;21.23;;;6.87;;
64487;SDS011;50864;45.050;39.014;2023-08-21T05:27:27;20.60;;;7.07;;
64487;SDS011;50864;45.050;39.014;2023-08-21T05:29:53;16.52;;;6.62;;
64487;SDS011;50864;45.050;39.014;2023-08-21T05:32:19;13.32;;;6.10;;
64487;SDS011;50864;45.050;39.014;2023-08-21T05:34:45;13.80;;;6.03;;
64487;SDS011;50864;45.050;39.014;2023-08-21T05:37:11;20.50;;;6.90;;
64487;SDS011;50864;45.050;39.014;2023-08-21T05:39:38;15.40;;;6.55;;
64487;SDS011;50864;45.050;39.014;2023-08-21T05:42:03;13.73;;;5.55;;
64487;SDS011;50864;45.050;39.014;2023-08-21T05:44:30;14.70;;;6.30;;
64487;SDS011;50864;45.050;39.014;2023-08-21T05:46:56;16.23;;;8.75;;
64487;SDS011;50864;45.050;39.014;2023-08-21T05:49:23;21.95;;;6.93;;
64487;SDS011;50864;45.050;39.014;2023-08-21T05:51:48;16.50;;;6.68;;
64487;SDS011;50864;45.050;39.014;2023-08-21T05:54:14;18.05;;;6.07;;
64487;SDS011;50864;45.050;39.014;2023-08-21T05:56:41;15.18;;;5.72;;
64487;SDS011;50864;45.050;39.014;2023-08-21T05:59:09;15.38;;;5.12;;
64487;SDS011;50864;45.050;39.014;2023-08-21T06:01:35;13.70;;;5.00;;
64487;SDS011;50864;45.050;39.014;2023-08-21T06:04:01;13.65;;;4.85;;
64487;SDS011;50864;45.050;39.014;2023-08-21T06:06:29;17.30;;;4.57;;
64487;SDS011;50864;45.050;39.014;2023-08-21T06:08:54;15.68;;;5.50;;
64487;SDS011;50864;45.050;39.014;2023-08-21T06:11:20;21.80;;;5.03;;
64487;SDS011;50864;45.050;39.014;2023-08-21T06:13:47;17.45;;;5.43;;
64487;SDS011;50864;45.050;39.014;2023-08-21T06:16:13;12.10;;;4.90;;
64487;SDS011;50864;45.050;39.014;2023-08-21T06:18:39;15.32;;;6.28;;
64487;SDS011;50864;45.050;39.014;2023-08-21T06:21:05;18.75;;;5.72;;
64487;SDS011;50864;45.050;39.014;2023-08-21T06:23:30;9.75;;;4.70;;
64487;SDS011;50864;45.050;39.014;2023-08-21T06:25:56;17.15;;;4.55;;
64487;SDS011;50864;45.050;39.014;2023-08-21T06:28:22;17.55;;;4.78;;
64487;SDS011;50864;45.050;39.014;2023-08-21T06:30:55;7.75;;;3.67;;
64487;SDS011;50864;45.050;39.014;2023-08-21T06:33:21;11.30;;;4.32;;
64487;SDS011;50864;45.050;39.014;2023-08-21T06:35:47;12.90;;;4.40;;
64487;SDS011;50864;45.050;39.014;2023-08-21T06:38:13;17.02;;;4.05;;
64487;SDS011;50864;45.050;39.014;2023-08-21T06:40:39;12.63;;;4.12;;
64487;SDS011;50864;45.050;39.014;2023-08-21T06:43:04;13.18;;;4.25;;
64487;SDS011;50864;45.050;39.014;2023-08-21T06:45:31;9.35;;;4.00;;
64487;SDS011;50864;45.050;39.014;2023-08-21T06:47:58;14.95;;;4.15;;
64487;SDS011;50864;45.050;39.014;2023-08-21T06:50:24;12.57;;;3.72;;
64487;SDS011;50864;45.050;39.014;2023-08-21T06:52:49;16.35;;;5.15;;
64487;SDS011;50864;45.050;39.014;2023-08-21T06:55:15;12.90;;;4.10;;
64487;SDS011;50864;45.050;39.014;2023-08-21T06:57:41;12.15;;;3.78;;
64487;SDS011;50864;45.050;39.014;2023-08-21T07:00:07;12.60;;;4.47;;
64487;SDS011;50864;45.050;39.014;2023-08-21T07:02:33;15.13;;;4.30;;
64487;SDS011;50864;45.050;39.014;2023-08-21T07:04:59;14.23;;;4.35;;
64487;SDS011;50864;45.050;39.014;2023-08-21T07:07:24;14.43;;;3.80;;
64487;SDS011;50864;45.050;39.014;2023-08-21T07:09:50;12.43;;;3.83;;
64487;SDS011;50864;45.050;39.014;2023-08-21T07:12:16;8.05;;;2.97;;
64487;SDS011;50864;45.050;39.014;2023-08-21T07:14:42;9.32;;;3.10;;
64487;SDS011;50864;45.050;39.014;2023-08-21T07:17:08;11.98;;;3.60;;
64487;SDS011;50864;45.050;39.014;2023-08-21T07:19:34;14.93;;;3.90;;
64487;SDS011;50864;45.050;39.014;2023-08-21T07:21:59;10.77;;;3.55;;
64487;SDS011;50864;45.050;39.014;2023-08-21T07:24:25;9.70;;;3.45;;
64487;SDS011;50864;45.050;39.014;2023-08-21T07:26:51;14.82;;;4.05;;
64487;SDS011;50864;45.050;39.014;2023-08-21T07:29:16;12.27;;;3.78;;
64487;SDS011;50864;45.050;39.014;2023-08-21T07:31:42;13.00;;;4.12;;
64487;SDS011;50864;45.050;39.014;2023-08-21T07:34:08;14.05;;;3.50;;
64487;SDS011;50864;45.050;39.014;2023-08-21T07:36:34;13.10;;;3.78;;
64487;SDS011;50864;45.050;39.014;2023-08-21T07:39:00;7.15;;;2.90;;
64487;SDS011;50864;45.050;39.014;2023-08-21T07:41:26;16.20;;;3.70;;
64487;SDS011;50864;45.050;39.014;2023-08-21T07:43:51;13.30;;;3.40;;
64487;SDS011;50864;45.050;39.014;2023-08-21T07:46:17;9.30;;;3.33;;
64487;SDS011;50864;45.050;39.014;2023-08-21T07:48:46;10.60;;;3.55;;
64487;SDS011;50864;45.050;39.014;2023-08-21T07:51:12;12.90;;;3.50;;
64487;SDS011;50864;45.050;39.014;2023-08-21T07:53:38;11.90;;;3.35;;
64487;SDS011;50864;45.050;39.014;2023-08-21T07:56:04;12.75;;;4.57;;
64487;SDS011;50864;45.050;39.014;2023-08-21T07:58:30;19.52;;;3.97;;
64487;SDS011;50864;45.050;39.014;2023-08-21T08:00:57;15.45;;;3.97;;
64487;SDS011;50864;45.050;39.014;2023-08-21T08:03:23;12.73;;;3.83;;
64487;SDS011;50864;45.050;39.014;2023-08-21T08:05:49;13.38;;;4.18;;
64487;SDS011;50864;45.050;39.014;2023-08-21T08:08:16;11.15;;;3.87;;
64487;SDS011;50864;45.050;39.014;2023-08-21T08:10:42;15.23;;;4.15;;
64487;SDS011;50864;45.050;39.014;2023-08-21T08:13:08;17.85;;;4.35;;
64487;SDS011;50864;45.050;39.014;2023-08-21T08:15:34;13.15;;;4.22;;
64487;SDS011;50864;45.050;39.014;2023-08-21T08:18:01;14.43;;;3.85;;
64487;SDS011;50864;45.050;39.014;2023-08-21T08:20:27;14.82;;;4.37;;
64487;SDS011;50864;45.050;39.014;2023-08-21T08:22:52;8.43;;;4.15;;
64487;SDS011;50864;45.050;39.014;2023-08-21T08:25:18;9.00;;;4.25;;
64487;SDS011;50864;45.050;39.014;2023-08-21T08:27:44;14.87;;;3.58;;
64487;SDS011;50864;45.050;39.014;2023-08-21T08:30:10;9.65;;;3.67;;
64487;SDS011;50864;45.050;39.014;2023-08-21T08:32:36;13.52;;;3.87;;
64487;SDS011;50864;45.050;39.014;2023-08-21T08:35:02;13.70;;;4.10;;
64487;SDS011;50864;45.050;39.014;2023-08-21T08:37:28;14.05;;;4.00;;
64487;SDS011;50864;45.050;39.014;2023-08-21T08:39:54;14.18;;;4.70;;
64487;SDS011;50864;45.050;39.014;2023-08-21T08:42:19;10.13;;;3.95;;
64487;SDS011;50864;45.050;39.014;2023-08-21T08:44:45;14.43;;;5.32;;
64487;SDS011;50864;45.050;39.014;2023-08-21T08:47:12;13.52;;;4.50;;
64487;SDS011;50864;45.050;39.014;2023-08-21T08:49:38;16.87;;;4.10;;
64487;SDS011;50864;45.050;39.014;2023-08-21T08:52:04;16.27;;;4.30;;
64487;SDS011;50864;45.050;39.014;2023-08-21T08:54:31;20.77;;;4.45;;
64487;SDS011;50864;45.050;39.014;2023-08-21T08:56:57;15.20;;;4.87;;
64487;SDS011;50864;45.050;39.014;2023-08-21T08:59:23;8.38;;;3.30;;
64487;SDS011;50864;45.050;39.014;2023-08-21T09:01:49;12.23;;;4.43;;
64487;SDS011;50864;45.050;39.014;2023-08-21T09:04:15;13.25;;;4.05;;
64487;SDS011;50864;45.050;39.014;2023-08-21T09:06:41;10.25;;;3.80;;
64487;SDS011;50864;45.050;39.014;2023-08-21T09:09:08;13.90;;;3.45;;
64487;SDS011;50864;45.050;39.014;2023-08-21T09:11:35;11.18;;;3.72;;
64487;SDS011;50864;45.050;39.014;2023-08-21T09:14:01;8.93;;;3.35;;
64487;SDS011;50864;45.050;39.014;2023-08-21T09:16:27;9.07;;;3.50;;
64487;SDS011;50864;45.050;39.014;2023-08-21T09:18:53;13.20;;;3.92;;
64487;SDS011;50864;45.050;39.014;2023-08-21T09:21:21;11.60;;;3.50;;
64487;SDS011;50864;45.050;39.014;2023-08-21T09:23:47;9.48;;;3.50;;
64487;SDS011;50864;45.050;39.014;2023-08-21T09:26:23;20.70;;;3.62;;
64487;SDS011;50864;45.050;39.014;2023-08-21T09:28:49;14.25;;;3.50;;
64487;SDS011;50864;45.050;39.014;2023-08-21T09:31:15;11.77;;;3.55;;
64487;SDS011;50864;45.050;39.014;2023-08-21T09:33:42;15.35;;;4.03;;
64487;SDS011;50864;45.050;39.014;2023-08-21T09:36:09;11.20;;;3.30;;
64487;SDS011;50864;45.050;39.014;2023-08-21T09:38:34;8.05;;;3.30;;
64487;SDS011;50864;45.050;39.014;2023-08-21T09:41:03;9.68;;;3.30;;
64487;SDS011;50864;45.050;39.014;2023-08-21T09:43:29;9.20;;;3.30;;
64487;SDS011;50864;45.050;39.014;2023-08-21T09:45:55;18.25;;;4.15;;
64487;SDS011;50864;45.050;39.014;2023-08-21T09:48:21;7.70;;;3.45;;
64487;SDS011;50864;45.050;39.014;2023-08-21T09:50:47;10.75;;;3.62;;
64487;SDS011;50864;45.050;39.014;2023-08-21T09:53:13;19.17;;;4.20;;
64487;SDS011;50864;45.050;39.014;2023-08-21T09:55:39;11.30;;;3.30;;
64487;SDS011;50864;45.050;39.014;2023-08-21T09:58:05;5.20;;;2.30;;
64487;SDS011;50864;45.050;39.014;2023-08-21T10:00:33;10.65;;;3.42;;
64487;SDS011;50864;45.050;39.014;2023-08-21T10:03:01;7.93;;;2.78;;
64487;SDS011;50864;45.050;39.014;2023-08-21T10:05:31;8.60;;;2.70;;
64487;SDS011;50864;45.050;39.014;2023-08-21T10:08:00;6.78;;;2.65;;
64487;SDS011;50864;45.050;39.014;2023-08-21T10:10:31;9.85;;;2.65;;
64487;SDS011;50864;45.050;39.014;2023-08-21T10:12:58;10.73;;;2.90;;
64487;SDS011;50864;45.050;39.014;2023-08-21T10:15:24;7.35;;;2.55;;
64487;SDS011;50864;45.050;39.014;2023-08-21T10:17:51;8.73;;;2.80;;
64487;SDS011;50864;45.050;39.014;2023-08-21T10:20:20;7.20;;;3.00;;
64487;SDS011;50864;45.050;39.014;2023-08-21T10:22:48;5.70;;;1.95;;
64487;SDS011;50864;45.050;39.014;2023-08-21T10:25:23;5.65;;;2.65;;
64487;SDS011;50864;45.050;39.014;2023-08-21T10:27:49;7.87;;;2.67;;
64487;SDS011;50864;45.050;39.014;2023-08-21T10:30:20;9.13;;;3.12;;
64487;SDS011;50864;45.050;39.014;2023-08-21T10:32:49;5.03;;;2.60;;
64487;SDS011;50864;45.050;39.014;2023-08-21T10:35:24;9.07;;;2.97;;
64487;SDS011;50864;45.050;39.014;2023-08-21T10:40:35;9.50;;;3.08;;
64487;SDS011;50864;45.050;39.014;2023-08-21T10:43:01;7.87;;;3.05;;
64487;SDS011;50864;45.050;39.014;2023-08-21T10:45:28;10.77;;;2.83;;
64487;SDS011;50864;45.050;39.014;2023-08-21T10:47:58;9.38;;;3.10;;
64487;SDS011;50864;45.050;39.014;2023-08-21T10:50:24;9.75;;;2.90;;
64487;SDS011;50864;45.050;39.014;2023-08-21T10:52:51;8.40;;;2.83;;
64487;SDS011;50864;45.050;39.014;2023-08-21T10:55:17;6.82;;;2.70;;
64487;SDS011;50864;45.050;39.014;2023-08-21T10:57:46;12.68;;;3.30;;
64487;SDS011;50864;45.050;39.014;2023-08-21T11:00:13;7.47;;;3.08;;
64487;SDS011;50864;45.050;39.014;2023-08-21T11:02:40;7.18;;;2.70;;
64487;SDS011;50864;45.050;39.014;2023-08-21T11:05:06;10.05;;;4.30;;
64487;SDS011;50864;45.050;39.014;2023-08-21T11:07:39;5.47;;;2.70;;
64487;SDS011;50864;45.050;39.014;2023-08-21T11:10:06;6.45;;;2.45;;
64487;SDS011;50864;45.050;39.014;2023-08-21T11:12:32;8.05;;;4.07;;
64487;SDS011;50864;45.050;39.014;2023-08-21T11:14:58;9.80;;;2.97;;
64487;SDS011;50864;45.050;39.014;2023-08-21T11:17:24;6.40;;;2.87;;
64487;SDS011;50864;45.050;39.014;2023-08-21T11:19:50;4.53;;;2.67;;
64487;SDS011;50864;45.050;39.014;2023-08-21T11:22:17;8.98;;;2.95;;
64487;SDS011;50864;45.050;39.014;2023-08-21T11:24:44;8.60;;;2.87;;
64487;SDS011;50864;45.050;39.014;2023-08-21T11:27:11;7.82;;;2.80;;
64487;SDS011;50864;45.050;39.014;2023-08-21T11:29:38;7.57;;;3.00;;
64487;SDS011;50864;45.050;39.014;2023-08-21T11:32:10;5.43;;;2.80;;
64487;SDS011;50864;45.050;39.014;2023-08-21T11:34:36;5.50;;;3.03;;
64487;SDS011;50864;45.050;39.014;2023-08-21T11:37:03;7.40;;;2.75;;
64487;SDS011;50864;45.050;39.014;2023-08-21T11:39:40;4.75;;;2.65;;
64487;SDS011;50864;45.050;39.014;2023-08-21T11:42:08;9.95;;;3.72;;
64487;SDS011;50864;45.050;39.014;2023-08-21T11:44:42;10.30;;;5.05;;
64487;SDS011;50864;45.050;39.014;2023-08-21T11:47:08;8.77;;;3.25;;
64487;SDS011;50864;45.050;39.014;2023-08-21T11:49:39;7.72;;;2.90;;
64487;SDS011;50864;45.050;39.014;2023-08-21T11:52:05;9.48;;;4.00;;
64487;SDS011;50864;45.050;39.014;2023-08-21T11:54:34;10.57;;;3.40;;
64487;SDS011;50864;45.050;39.014;2023-08-21T11:57:05;6.18;;;2.62;;
64487;SDS011;50864;45.050;39.014;2023-08-21T11:59:31;9.00;;;3.05;;
64487;SDS011;50864;45.050;39.014;2023-08-21T12:01:57;6.53;;;2.80;;
64487;SDS011;50864;45.050;39.014;2023-08-21T12:04:23;8.55;;;3.03;;
64487;SDS011;50864;45.050;39.014;2023-08-21T12:06:49;5.15;;;2.75;;
64487;SDS011;50864;45.050;39.014;2023-08-21T12:09:15;6.62;;;3.22;;
64487;SDS011;50864;45.050;39.014;2023-08-21T12:11:41;8.38;;;3.25;;
64487;SDS011;50864;45.050;39.014;2023-08-21T12:14:07;7.45;;;3.30;;
64487;SDS011;50864;45.050;39.014;2023-08-21T12:16:32;8.55;;;2.95;;
64487;SDS011;50864;45.050;39.014;2023-08-21T12:18:58;8.50;;;2.67;;
64487;SDS011;50864;45.050;39.014;2023-08-21T12:21:24;14.30;;;3.00;;
64487;SDS011;50864;45.050;39.014;2023-08-21T12:23:50;9.57;;;3.15;;
64487;SDS011;50864;45.050;39.014;2023-08-21T12:26:16;7.40;;;3.30;;
64487;SDS011;50864;45.050;39.014;2023-08-21T12:28:46;7.97;;;2.80;;
64487;SDS011;50864;45.050;39.014;2023-08-21T12:31:12;13.50;;;3.45;;
64487;SDS011;50864;45.050;39.014;2023-08-21T12:33:38;8.77;;;3.05;;
64487;SDS011;50864;45.050;39.014;2023-08-21T12:36:04;6.68;;;2.80;;
64487;SDS011;50864;45.050;39.014;2023-08-21T12:38:30;6.47;;;2.87;;
64487;SDS011;50864;45.050;39.014;2023-08-21T12:40:56;7.55;;;2.80;;
64487;SDS011;50864;45.050;39.014;2023-08-21T12:43:21;6.40;;;2.75;;
64487;SDS011;50864;45.050;39.014;2023-08-21T12:45:47;5.30;;;2.97;;
64487;SDS011;50864;45.050;39.014;2023-08-21T12:48:13;8.27;;;2.92;;
64487;SDS011;50864;45.050;39.014;2023-08-21T12:50:39;5.97;;;3.35;;
64487;SDS011;50864;45.050;39.014;2023-08-21T12:53:04;7.62;;;3.08;;
64487;SDS011;50864;45.050;39.014;2023-08-21T12:55:30;7.28;;;3.67;;
64487;SDS011;50864;45.050;39.014;2023-08-21T12:57:56;8.73;;;2.87;;
64487;SDS011;50864;45.050;39.014;2023-08-21T13:00:22;9.15;;;2.60;;
64487;SDS011;50864;45.050;39.014;2023-08-21T13:02:48;6.15;;;2.67;;
64487;SDS011;50864;45.050;39.014;2023-08-21T13:05:14;8.30;;;2.70;;
64487;SDS011;50864;45.050;39.014;2023-08-21T13:07:41;6.60;;;3.15;;
64487;SDS011;50864;45.050;39.014;2023-08-21T13:10:07;6.07;;;2.72;;
64487;SDS011;50864;45.050;39.014;2023-08-21T13:12:32;6.50;;;2.95;;
64487;SDS011;50864;45.050;39.014;2023-08-21T13:14:58;5.07;;;3.00;;
64487;SDS011;50864;45.050;39.014;2023-08-21T13:17:24;6.85;;;3.25;;
64487;SDS011;50864;45.050;39.014;2023-08-21T13:19:50;7.75;;;3.00;;
64487;SDS011;50864;45.050;39.014;2023-08-21T13:22:16;5.65;;;2.40;;
64487;SDS011;50864;45.050;39.014;2023-08-21T13:24:42;14.50;;;3.80;;
64487;SDS011;50864;45.050;39.014;2023-08-21T13:27:10;8.35;;;3.10;;
64487;SDS011;50864;45.050;39.014;2023-08-21T13:29:37;6.28;;;3.42;;
64487;SDS011;50864;45.050;39.014;2023-08-21T13:32:03;7.03;;;3.20;;
64487;SDS011;50864;45.050;39.014;2023-08-21T13:34:28;5.18;;;3.50;;
64487;SDS011;50864;45.050;39.014;2023-08-21T13:36:54;8.02;;;3.70;;
64487;SDS011;50864;45.050;39.014;2023-08-21T13:39:20;7.22;;;3.12;;
64487;SDS011;50864;45.050;39.014;2023-08-21T13:41:50;12.00;;;3.50;;
64487;SDS011;50864;45.050;39.014;2023-08-21T13:44:16;6.60;;;3.25;;
64487;SDS011;50864;45.050;39.014;2023-08-21T13:46:42;4.78;;;3.10;;
64487;SDS011;50864;45.050;39.014;2023-08-21T13:49:07;8.93;;;3.05;;
64487;SDS011;50864;45.050;39.014;2023-08-21T13:51:34;10.73;;;3.05;;
64487;SDS011;50864;45.050;39.014;2023-08-21T13:54:00;11.20;;;3.30;;
64487;SDS011;50864;45.050;39.014;2023-08-21T13:56:26;8.88;;;3.53;;
64487;SDS011;50864;45.050;39.014;2023-08-21T13:58:52;9.27;;;3.20;;
64487;SDS011;50864;45.050;39.014;2023-08-21T14:01:18;6.40;;;3.30;;
64487;SDS011;50864;45.050;39.014;2023-08-21T14:03:44;11.02;;;3.42;;
64487;SDS011;50864;45.050;39.014;2023-08-21T14:06:10;11.05;;;3.62;;
64487;SDS011;50864;45.050;39.014;2023-08-21T14:08:37;8.32;;;3.28;;
64487;SDS011;50864;45.050;39.014;2023-08-21T14:11:03;8.40;;;3.30;;
64487;SDS011;50864;45.050;39.014;2023-08-21T14:13:29;11.77;;;3.65;;
64487;SDS011;50864;45.050;39.014;2023-08-21T14:15:54;7.75;;;3.50;;
64487;SDS011;50864;45.050;39.014;2023-08-21T14:18:20;9.43;;;3.67;;
64487;SDS011;50864;45.050;39.014;2023-08-21T14:20:46;9.25;;;3.47;;